Hovedside
METAR-TAF:

METAR-TAF

Lufthavner :

Oljeplattform

Snorre B, Norge

breddegrad: 61-32N, lengdegrad: 2-12E, høyde over havet: 90 m

Gjeldene værobservasjon

Denne rapporten ble laget for 15 minutter siden, klokken 11:20 UTC
Vind 26 kt fra Vest-nordvest
Temperatur 3°C
Luftfuktighet 75%
Trykk 993 hPa
Sikt 10 km eller mer

METAR: ENQR 071120Z AUTO 30026KT 9999NDV FEW017/// 03/M01 Q0993 W///S5

Tid: 12:35 (11:35 UTC)


TAF: fraværende

Værobservasjoner og værvarsel for over 4000 flyplasser (METAR- og TAF-rapporter).

Tilgjengelige stasjoner er representert av de røde og gule prikkene på kartet.

Hold musepekeren over prikken for å se navnet på stasjonen.

Klikk så for å se værobservasjoner og -varsler.

For å forandre kartet kan du klikke på den grønne knappen med svart kryss for å zoome inn, på den grønne knappen med strek for å zoome ut, eller på de grønne pilene for å se tilstøtende kart.


METAR-TAF: